Uakit, Russia
Current Conditions -  °F | °C
As of 8:00 PM on Friday 28 Nov 2014 (Local Time) from UIAA Reporting Station
Clear Clear  
Wind Chill: -8°   Ceiling: Unl
Heat Index: -8°   Visibility: 6mi
Dew Point: -13°   Wind: 2mph
Humidity: 77%   Direction: NA
Pressure: 29.91"   Gusts: NA
Location:  55.5°N, 113.63°E
Report Text: UIAA 281200Z VRB01MPS 9999 SKC M22/M25 Q1013 NOSIG RMK QFE70129490060
Loading
Personal Weather Stations






























Interactive Weather Map New forecast layout! Learn more

10-Day Weather Forecast

Advertisements
Track Severe Weather on mobile